createdAt,value
2023-04-03T00:02:51.349Z,3.10
2023-04-03T00:07:53.240Z,3.20
2023-04-03T00:12:55.126Z,3.10
2023-04-03T00:17:56.984Z,3.10
2023-04-03T00:22:58.942Z,3.20
2023-04-03T00:28:00.892Z,3.10
2023-04-03T00:33:03.028Z,3.10
2023-04-03T00:38:05.540Z,3.10
2023-04-03T00:43:14.405Z,3.10
2023-04-03T00:48:28.177Z,3.00
2023-04-03T00:54:01.762Z,3.00
2023-04-03T00:59:23.126Z,3.00
2023-04-03T01:04:40.483Z,3.00
2023-04-03T01:09:43.147Z,3.10
2023-04-03T01:14:47.123Z,3.10
2023-04-03T01:20:05.230Z,3.10
2023-04-03T01:25:07.106Z,3.10
2023-04-03T01:30:09.734Z,3.10
2023-04-03T01:35:12.475Z,3.20
2023-04-03T01:40:14.259Z,3.10
2023-04-03T01:45:16.314Z,3.00
2023-04-03T01:50:18.192Z,3.10
2023-04-03T01:55:20.920Z,3.10
2023-04-03T02:00:22.916Z,3.10
2023-04-03T02:05:25.754Z,3.00
2023-04-03T02:10:27.629Z,3.00
2023-04-03T02:15:29.640Z,3.00
2023-04-03T02:20:31.429Z,3.00
2023-04-03T02:25:34.026Z,3.10
2023-04-03T02:30:36.455Z,3.00
2023-04-03T02:35:41.229Z,3.00
2023-04-03T02:40:43.259Z,2.90
2023-04-03T02:45:45.820Z,3.00
2023-04-03T02:50:48.438Z,3.00
2023-04-03T02:55:50.523Z,2.90
2023-04-03T03:00:52.634Z,2.90
2023-04-03T03:06:27.129Z,3.00
2023-04-03T03:11:30.503Z,3.00
2023-04-03T03:16:32.474Z,3.00
2023-04-03T03:21:34.462Z,2.90
2023-04-03T03:26:37.251Z,2.90
2023-04-03T03:31:39.527Z,2.90
2023-04-03T03:36:42.407Z,2.90
2023-04-03T03:41:44.214Z,2.90
2023-04-03T03:46:46.603Z,2.80
2023-04-03T03:51:48.635Z,2.80
2023-04-03T03:56:50.653Z,2.90
2023-04-03T04:01:52.657Z,2.90
2023-04-03T04:06:54.460Z,2.90
2023-04-03T04:11:56.498Z,2.90
2023-04-03T04:16:58.423Z,2.90
2023-04-03T04:22:02.805Z,2.90
2023-04-03T04:27:06.699Z,2.80
2023-04-03T04:32:11.132Z,2.80
2023-04-03T04:37:13.063Z,2.80
2023-04-03T04:42:17.787Z,2.80
2023-04-03T04:47:21.214Z,2.80
2023-04-03T04:52:23.283Z,2.80
2023-04-03T04:57:25.669Z,2.80
2023-04-03T05:02:28.479Z,2.80
2023-04-03T05:07:31.309Z,2.80
2023-04-03T05:12:35.855Z,2.90
2023-04-03T05:17:39.621Z,2.80
2023-04-03T05:22:44.485Z,2.90
2023-04-03T05:27:46.430Z,2.90
2023-04-03T05:32:48.654Z,2.90
2023-04-03T05:37:54.598Z,2.90
2023-04-03T05:42:57.424Z,2.90
2023-04-03T05:48:01.822Z,2.80
2023-04-03T05:53:06.062Z,2.90
2023-04-03T05:58:09.812Z,2.90
2023-04-03T06:03:13.942Z,2.90
2023-04-03T06:08:16.233Z,3.00
2023-04-03T06:13:18.181Z,3.00
2023-04-03T06:18:20.447Z,3.00
2023-04-03T06:23:22.817Z,3.00
2023-04-03T06:28:27.328Z,2.90
2023-04-03T06:33:29.174Z,2.90
2023-04-03T06:38:31.528Z,2.80
2023-04-03T06:43:34.845Z,2.70
2023-04-03T06:48:37.124Z,2.60
2023-04-03T06:53:38.950Z,2.70
2023-04-03T06:58:41.594Z,2.70
2023-04-03T07:03:43.643Z,2.70
2023-04-03T07:08:46.531Z,2.80
2023-04-03T07:13:48.319Z,3.00
2023-04-03T07:18:50.297Z,3.20
2023-04-03T07:23:52.073Z,3.50
2023-04-03T07:28:54.084Z,3.70
2023-04-03T07:33:55.994Z,3.70
2023-04-03T07:38:58.029Z,3.90
2023-04-03T07:43:59.887Z,3.80
2023-04-03T07:49:01.660Z,3.90
2023-04-03T07:54:03.599Z,4.10
2023-04-03T07:59:05.364Z,4.20
2023-04-03T08:04:07.906Z,4.40
2023-04-03T08:09:09.985Z,4.70
2023-04-03T08:14:17.280Z,4.50
2023-04-03T08:19:26.090Z,4.20
2023-04-03T08:24:28.527Z,3.80
2023-04-03T08:29:31.555Z,3.70
2023-04-03T08:34:35.857Z,3.50
2023-04-03T08:39:37.829Z,3.90
2023-04-03T08:44:51.612Z,4.60
2023-04-03T08:49:59.303Z,5.10
2023-04-03T08:55:42.283Z,5.80
2023-04-03T09:01:18.211Z,5.90
2023-04-03T09:06:27.366Z,6.30
2023-04-03T09:11:38.771Z,6.10
2023-04-03T09:16:50.721Z,6.00
2023-04-03T09:21:52.979Z,5.80
2023-04-03T09:27:04.565Z,6.20
2023-04-03T09:32:31.111Z,6.60
2023-04-03T09:37:42.688Z,6.00
2023-04-03T09:42:48.842Z,6.20
2023-04-03T09:48:16.351Z,6.20
2023-04-03T09:53:45.444Z,6.40
2023-04-03T09:59:09.401Z,6.20
2023-04-03T10:04:17.008Z,6.20
2023-04-03T10:09:29.214Z,6.30
2023-04-03T10:14:31.471Z,6.60
2023-04-03T10:19:44.504Z,6.80
2023-04-03T10:24:58.155Z,6.80
2023-04-03T10:30:42.629Z,6.20
2023-04-03T10:35:49.163Z,6.10
2023-04-03T10:40:59.928Z,6.10
2023-04-03T10:46:16.492Z,6.20
2023-04-03T10:51:52.000Z,6.40
2023-04-03T10:57:10.878Z,5.30
2023-04-03T11:02:34.298Z,5.70
2023-04-03T11:07:47.195Z,5.90
2023-04-03T11:12:55.441Z,5.80
2023-04-03T11:18:11.825Z,6.10
2023-04-03T11:23:13.772Z,6.20
2023-04-03T11:28:16.648Z,5.80
2023-04-03T11:33:37.085Z,6.10
2023-04-03T11:38:43.624Z,5.90
2023-04-03T11:44:27.082Z,5.20
2023-04-03T11:50:00.626Z,5.10
2023-04-03T11:55:02.645Z,4.80
2023-04-03T12:00:43.021Z,5.10
2023-04-03T12:05:44.857Z,5.30
2023-04-03T12:11:09.518Z,4.90
2023-04-03T12:16:27.928Z,5.20
2023-04-03T12:21:35.321Z,5.40
2023-04-03T12:26:56.938Z,5.50
2023-04-03T12:32:04.990Z,5.40
2023-04-03T12:37:17.128Z,5.60
2023-04-03T12:42:49.711Z,6.00
2023-04-03T12:47:54.211Z,6.60
2023-04-03T12:53:06.265Z,6.20
2023-04-03T12:58:23.329Z,6.00
2023-04-03T13:03:28.198Z,6.00
2023-04-03T13:08:31.571Z,6.20
2023-04-03T13:13:33.406Z,6.10
2023-04-03T13:18:37.293Z,5.60
2023-04-03T13:23:43.347Z,5.70
2023-04-03T13:28:46.361Z,5.80
2023-04-03T13:33:59.468Z,5.50
2023-04-03T13:39:06.255Z,5.60
2023-04-03T13:44:23.140Z,5.60
2023-04-03T13:49:41.762Z,5.80
2023-04-03T13:54:48.293Z,5.60
2023-04-03T13:59:51.181Z,5.40
2023-04-03T14:05:01.024Z,5.10
2023-04-03T14:10:02.894Z,5.00
2023-04-03T14:15:13.255Z,5.10
2023-04-03T14:20:21.512Z,5.20
2023-04-03T14:25:27.234Z,5.00
2023-04-03T14:30:33.171Z,4.90
2023-04-03T14:35:34.995Z,5.20
2023-04-03T14:40:36.962Z,5.50
2023-04-03T14:45:39.911Z,5.50
2023-04-03T14:50:49.128Z,5.20
2023-04-03T14:55:56.649Z,4.90
2023-04-03T15:00:58.410Z,4.90
2023-04-03T15:06:00.264Z,5.10
2023-04-03T15:11:02.243Z,5.10
2023-04-03T15:16:05.079Z,4.90
2023-04-03T15:21:07.146Z,4.80
2023-04-03T15:26:09.105Z,4.70
2023-04-03T15:31:11.235Z,4.60
2023-04-03T15:41:18.832Z,4.80
2023-04-03T15:46:20.888Z,4.80
2023-04-03T15:51:22.894Z,4.80
2023-04-03T15:56:24.657Z,4.60
2023-04-03T16:01:26.486Z,4.30
2023-04-03T16:06:30.398Z,4.10
2023-04-03T16:11:32.188Z,4.00
2023-04-03T16:16:34.353Z,3.90
2023-04-03T16:21:36.195Z,3.90
2023-04-03T16:26:38.002Z,3.80
2023-04-03T16:31:40.098Z,3.80
2023-04-03T16:36:41.914Z,3.80
2023-04-03T16:41:43.761Z,3.70
2023-04-03T16:46:47.026Z,3.70
2023-04-03T16:51:50.406Z,3.60
2023-04-03T16:56:52.184Z,3.50
2023-04-03T17:01:53.952Z,3.40
2023-04-03T17:06:56.205Z,3.20
2023-04-03T17:11:57.992Z,3.20
2023-04-03T17:16:59.957Z,3.00
2023-04-03T17:22:02.197Z,3.00
2023-04-03T17:27:04.626Z,2.90
2023-04-03T17:32:06.502Z,2.80
2023-04-03T17:37:08.755Z,2.80
2023-04-03T17:42:10.805Z,2.70
2023-04-03T17:47:12.802Z,2.70
2023-04-03T17:52:14.573Z,2.60
2023-04-03T17:57:16.828Z,2.50
2023-04-03T18:02:19.015Z,2.50
2023-04-03T18:07:21.020Z,2.40
2023-04-03T18:12:23.695Z,2.40
2023-04-03T18:17:26.804Z,2.40
2023-04-03T18:22:29.612Z,2.40
2023-04-03T18:27:31.585Z,2.30
2023-04-03T18:32:33.510Z,2.20
2023-04-03T18:37:35.895Z,2.00
2023-04-03T18:42:41.253Z,1.80
2023-04-03T18:47:43.737Z,1.60
2023-04-03T18:52:47.059Z,1.40
2023-04-03T18:57:49.472Z,1.30
2023-04-03T19:02:51.587Z,1.20
2023-04-03T19:07:55.677Z,1.10
2023-04-03T19:12:57.502Z,0.80
2023-04-03T19:17:59.336Z,0.80
2023-04-03T19:23:01.129Z,0.80
2023-04-03T19:28:02.963Z,0.80
2023-04-03T19:33:04.801Z,0.70
2023-04-03T19:38:06.575Z,0.60
2023-04-03T19:43:09.605Z,0.50
2023-04-03T19:48:11.544Z,0.50
2023-04-03T19:53:18.661Z,0.50
2023-04-03T19:58:20.647Z,0.60
2023-04-03T20:03:22.519Z,0.50
2023-04-03T20:08:26.280Z,0.60
2023-04-03T20:13:28.223Z,0.60
2023-04-03T20:18:30.351Z,0.80
2023-04-03T20:23:32.271Z,0.70
2023-04-03T20:28:36.250Z,0.90
2023-04-03T20:33:38.163Z,0.80
2023-04-03T20:38:40.006Z,0.80
2023-04-03T20:43:42.894Z,0.90
2023-04-03T20:48:45.100Z,1.00
2023-04-03T20:53:48.080Z,1.00
2023-04-03T20:58:50.412Z,1.10
2023-04-03T21:03:57.173Z,1.10
2023-04-03T21:09:37.484Z,1.10
2023-04-03T21:15:17.097Z,1.20
2023-04-03T21:20:18.875Z,1.20
2023-04-03T21:25:20.939Z,1.30
2023-04-03T21:30:22.790Z,1.20
2023-04-03T21:35:24.557Z,1.30
2023-04-03T21:40:26.809Z,1.40
2023-04-03T21:45:29.562Z,1.40
2023-04-03T21:50:32.669Z,1.50
2023-04-03T21:55:34.514Z,1.50
2023-04-03T22:00:36.330Z,1.60
2023-04-03T22:05:38.155Z,1.60
2023-04-03T22:10:41.287Z,1.60
2023-04-03T22:15:47.368Z,1.60
2023-04-03T22:20:49.225Z,1.50
2023-04-03T22:26:02.585Z,1.30
2023-04-03T22:31:07.373Z,1.10
2023-04-03T22:36:11.162Z,0.90
2023-04-03T22:41:13.356Z,0.80
2023-04-03T22:46:15.322Z,0.60
2023-04-03T22:51:17.135Z,0.50
2023-04-03T22:56:18.880Z,0.40
2023-04-03T23:01:24.134Z,0.30
2023-04-03T23:06:26.679Z,0.20
2023-04-03T23:11:28.721Z,0.10
2023-04-03T23:16:30.556Z,0.10
2023-04-03T23:21:32.326Z,0.10
2023-04-03T23:26:34.162Z,0.00
2023-04-03T23:31:36.340Z,0.00
2023-04-03T23:36:38.587Z,0.00
2023-04-03T23:41:40.383Z,-0.10
2023-04-03T23:46:42.148Z,-0.20
2023-04-03T23:51:43.915Z,-0.20
2023-04-03T23:56:45.689Z,-0.20
